sensor_id;sensor_type;location;lat;lon;timestamp;P1;durP1;ratioP1;P2;durP2;ratioP2
44588;SDS011;30298;52.562;13.414;2022-11-22T00:00:03;30.13;;;15.13;;
44588;SDS011;30298;52.562;13.414;2022-11-22T00:04:54;26.98;;;13.57;;
44588;SDS011;30298;52.562;13.414;2022-11-22T00:07:19;27.40;;;14.23;;
44588;SDS011;30298;52.562;13.414;2022-11-22T00:09:45;28.50;;;14.13;;
44588;SDS011;30298;52.562;13.414;2022-11-22T00:12:10;29.23;;;14.73;;
44588;SDS011;30298;52.562;13.414;2022-11-22T00:14:35;28.37;;;14.57;;
44588;SDS011;30298;52.562;13.414;2022-11-22T00:17:00;27.13;;;14.40;;
44588;SDS011;30298;52.562;13.414;2022-11-22T00:19:26;30.60;;;14.77;;
44588;SDS011;30298;52.562;13.414;2022-11-22T00:21:51;27.50;;;13.60;;
44588;SDS011;30298;52.562;13.414;2022-11-22T00:24:16;32.50;;;16.13;;
44588;SDS011;30298;52.562;13.414;2022-11-22T00:26:42;33.00;;;14.93;;
44588;SDS011;30298;52.562;13.414;2022-11-22T00:29:07;26.30;;;13.87;;
44588;SDS011;30298;52.562;13.414;2022-11-22T00:31:32;31.40;;;14.73;;
44588;SDS011;30298;52.562;13.414;2022-11-22T00:33:57;28.07;;;14.37;;
44588;SDS011;30298;52.562;13.414;2022-11-22T00:36:23;30.20;;;14.80;;
44588;SDS011;30298;52.562;13.414;2022-11-22T00:38:48;29.10;;;14.13;;
44588;SDS011;30298;52.562;13.414;2022-11-22T00:41:13;29.07;;;15.63;;
44588;SDS011;30298;52.562;13.414;2022-11-22T00:43:39;30.43;;;14.80;;
44588;SDS011;30298;52.562;13.414;2022-11-22T00:46:04;26.73;;;13.37;;
44588;SDS011;30298;52.562;13.414;2022-11-22T00:48:29;31.83;;;14.73;;
44588;SDS011;30298;52.562;13.414;2022-11-22T00:50:54;29.30;;;14.53;;
44588;SDS011;30298;52.562;13.414;2022-11-22T00:53:20;27.83;;;14.17;;
44588;SDS011;30298;52.562;13.414;2022-11-22T00:55:45;29.70;;;14.50;;
44588;SDS011;30298;52.562;13.414;2022-11-22T00:58:10;32.30;;;15.33;;
44588;SDS011;30298;52.562;13.414;2022-11-22T01:00:36;32.43;;;15.03;;
44588;SDS011;30298;52.562;13.414;2022-11-22T01:03:01;32.97;;;16.23;;
44588;SDS011;30298;52.562;13.414;2022-11-22T01:05:26;28.57;;;15.73;;
44588;SDS011;30298;52.562;13.414;2022-11-22T01:07:52;31.70;;;15.37;;
44588;SDS011;30298;52.562;13.414;2022-11-22T01:10:17;32.10;;;15.63;;
44588;SDS011;30298;52.562;13.414;2022-11-22T01:12:42;33.63;;;16.07;;
44588;SDS011;30298;52.562;13.414;2022-11-22T01:15:08;31.77;;;15.33;;
44588;SDS011;30298;52.562;13.414;2022-11-22T01:17:33;30.70;;;15.18;;
44588;SDS011;30298;52.562;13.414;2022-11-22T01:19:58;32.17;;;16.07;;
44588;SDS011;30298;52.562;13.414;2022-11-22T01:22:23;30.63;;;15.63;;
44588;SDS011;30298;52.562;13.414;2022-11-22T01:24:49;33.67;;;14.57;;
44588;SDS011;30298;52.562;13.414;2022-11-22T01:27:14;30.33;;;14.77;;
44588;SDS011;30298;52.562;13.414;2022-11-22T01:29:39;32.77;;;15.33;;
44588;SDS011;30298;52.562;13.414;2022-11-22T01:32:05;29.07;;;14.87;;
44588;SDS011;30298;52.562;13.414;2022-11-22T01:34:30;34.15;;;15.95;;
44588;SDS011;30298;52.562;13.414;2022-11-22T01:36:56;29.65;;;14.80;;
44588;SDS011;30298;52.562;13.414;2022-11-22T01:39:21;29.67;;;15.80;;
44588;SDS011;30298;52.562;13.414;2022-11-22T01:41:46;30.73;;;14.77;;
44588;SDS011;30298;52.562;13.414;2022-11-22T01:46:47;31.10;;;14.70;;
44588;SDS011;30298;52.562;13.414;2022-11-22T01:49:16;30.88;;;15.70;;
44588;SDS011;30298;52.562;13.414;2022-11-22T01:51:44;28.85;;;15.40;;
44588;SDS011;30298;52.562;13.414;2022-11-22T01:54:11;32.08;;;16.13;;
44588;SDS011;30298;52.562;13.414;2022-11-22T01:56:37;34.20;;;16.40;;
44588;SDS011;30298;52.562;13.414;2022-11-22T01:59:05;31.15;;;15.93;;
44588;SDS011;30298;52.562;13.414;2022-11-22T02:01:32;31.25;;;14.30;;
44588;SDS011;30298;52.562;13.414;2022-11-22T02:03:58;29.83;;;14.20;;
44588;SDS011;30298;52.562;13.414;2022-11-22T02:06:25;30.75;;;16.13;;
44588;SDS011;30298;52.562;13.414;2022-11-22T02:09:02;32.95;;;15.63;;
44588;SDS011;30298;52.562;13.414;2022-11-22T02:11:29;34.33;;;16.33;;
44588;SDS011;30298;52.562;13.414;2022-11-22T02:13:55;32.27;;;16.10;;
44588;SDS011;30298;52.562;13.414;2022-11-22T02:16:21;32.30;;;15.65;;
44588;SDS011;30298;52.562;13.414;2022-11-22T02:18:46;28.75;;;15.50;;
44588;SDS011;30298;52.562;13.414;2022-11-22T02:21:12;31.37;;;16.17;;
44588;SDS011;30298;52.562;13.414;2022-11-22T02:26:05;31.45;;;15.63;;
44588;SDS011;30298;52.562;13.414;2022-11-22T02:28:35;33.83;;;15.57;;
44588;SDS011;30298;52.562;13.414;2022-11-22T02:31:01;29.63;;;15.70;;
44588;SDS011;30298;52.562;13.414;2022-11-22T02:33:26;27.67;;;14.20;;
44588;SDS011;30298;52.562;13.414;2022-11-22T02:35:51;29.93;;;15.83;;
44588;SDS011;30298;52.562;13.414;2022-11-22T02:38:23;29.90;;;14.00;;
44588;SDS011;30298;52.562;13.414;2022-11-22T02:43:19;31.42;;;15.07;;
44588;SDS011;30298;52.562;13.414;2022-11-22T02:45:46;29.30;;;14.95;;
44588;SDS011;30298;52.562;13.414;2022-11-22T02:48:12;30.53;;;14.47;;
44588;SDS011;30298;52.562;13.414;2022-11-22T02:50:37;33.30;;;15.07;;
44588;SDS011;30298;52.562;13.414;2022-11-22T02:53:03;31.93;;;15.33;;
44588;SDS011;30298;52.562;13.414;2022-11-22T02:55:29;32.92;;;16.27;;
44588;SDS011;30298;52.562;13.414;2022-11-22T02:57:54;26.47;;;13.87;;
44588;SDS011;30298;52.562;13.414;2022-11-22T03:00:19;30.80;;;14.63;;
44588;SDS011;30298;52.562;13.414;2022-11-22T03:02:45;29.95;;;14.52;;
44588;SDS011;30298;52.562;13.414;2022-11-22T03:05:10;33.17;;;14.60;;
44588;SDS011;30298;52.562;13.414;2022-11-22T03:07:35;32.33;;;14.93;;
44588;SDS011;30298;52.562;13.414;2022-11-22T03:10:01;36.93;;;15.67;;
44588;SDS011;30298;52.562;13.414;2022-11-22T03:12:26;31.20;;;16.00;;
44588;SDS011;30298;52.562;13.414;2022-11-22T03:14:51;33.53;;;15.67;;
44588;SDS011;30298;52.562;13.414;2022-11-22T03:17:16;33.70;;;15.40;;
44588;SDS011;30298;52.562;13.414;2022-11-22T03:19:42;30.30;;;15.30;;
44588;SDS011;30298;52.562;13.414;2022-11-22T03:22:07;32.40;;;15.30;;
44588;SDS011;30298;52.562;13.414;2022-11-22T03:24:32;27.73;;;13.93;;
44588;SDS011;30298;52.562;13.414;2022-11-22T03:26:57;30.10;;;15.73;;
44588;SDS011;30298;52.562;13.414;2022-11-22T03:29:23;30.23;;;14.93;;
44588;SDS011;30298;52.562;13.414;2022-11-22T03:31:48;34.97;;;16.37;;
44588;SDS011;30298;52.562;13.414;2022-11-22T03:34:14;30.20;;;15.93;;
44588;SDS011;30298;52.562;13.414;2022-11-22T03:36:39;33.77;;;15.47;;
44588;SDS011;30298;52.562;13.414;2022-11-22T03:39:05;35.07;;;14.67;;
44588;SDS011;30298;52.562;13.414;2022-11-22T03:41:30;35.15;;;16.67;;
44588;SDS011;30298;52.562;13.414;2022-11-22T03:43:55;33.95;;;16.70;;
44588;SDS011;30298;52.562;13.414;2022-11-22T03:46:21;31.30;;;14.50;;
44588;SDS011;30298;52.562;13.414;2022-11-22T03:48:46;33.17;;;15.40;;
44588;SDS011;30298;52.562;13.414;2022-11-22T03:51:12;31.88;;;14.35;;
44588;SDS011;30298;52.562;13.414;2022-11-22T03:53:37;37.35;;;15.98;;
44588;SDS011;30298;52.562;13.414;2022-11-22T03:56:03;28.38;;;14.55;;
44588;SDS011;30298;52.562;13.414;2022-11-22T03:58:28;34.03;;;15.48;;
44588;SDS011;30298;52.562;13.414;2022-11-22T04:00:54;35.35;;;16.58;;
44588;SDS011;30298;52.562;13.414;2022-11-22T04:03:19;33.53;;;16.30;;
44588;SDS011;30298;52.562;13.414;2022-11-22T04:05:45;34.77;;;15.70;;
44588;SDS011;30298;52.562;13.414;2022-11-22T04:08:10;32.60;;;15.70;;
44588;SDS011;30298;52.562;13.414;2022-11-22T04:10:35;32.80;;;16.13;;
44588;SDS011;30298;52.562;13.414;2022-11-22T04:13:00;35.47;;;15.10;;
44588;SDS011;30298;52.562;13.414;2022-11-22T04:15:26;32.33;;;15.37;;
44588;SDS011;30298;52.562;13.414;2022-11-22T04:17:51;33.75;;;14.73;;
44588;SDS011;30298;52.562;13.414;2022-11-22T04:20:18;30.67;;;14.70;;
44588;SDS011;30298;52.562;13.414;2022-11-22T04:23:03;35.22;;;15.65;;
44588;SDS011;30298;52.562;13.414;2022-11-22T04:25:29;33.25;;;15.23;;
44588;SDS011;30298;52.562;13.414;2022-11-22T04:27:55;32.38;;;14.73;;
44588;SDS011;30298;52.562;13.414;2022-11-22T04:30:21;34.28;;;15.45;;
44588;SDS011;30298;52.562;13.414;2022-11-22T04:33:06;35.03;;;16.17;;
44588;SDS011;30298;52.562;13.414;2022-11-22T04:35:32;34.33;;;17.70;;
44588;SDS011;30298;52.562;13.414;2022-11-22T04:37:57;34.60;;;15.57;;
44588;SDS011;30298;52.562;13.414;2022-11-22T04:40:22;33.67;;;15.93;;
44588;SDS011;30298;52.562;13.414;2022-11-22T04:42:47;36.43;;;16.93;;
44588;SDS011;30298;52.562;13.414;2022-11-22T04:45:31;35.22;;;15.75;;
44588;SDS011;30298;52.562;13.414;2022-11-22T04:47:56;34.20;;;15.07;;
44588;SDS011;30298;52.562;13.414;2022-11-22T04:50:25;40.20;;;17.48;;
44588;SDS011;30298;52.562;13.414;2022-11-22T04:53:09;36.25;;;16.15;;
44588;SDS011;30298;52.562;13.414;2022-11-22T04:55:35;37.93;;;16.57;;
44588;SDS011;30298;52.562;13.414;2022-11-22T04:58:00;36.47;;;17.07;;
44588;SDS011;30298;52.562;13.414;2022-11-22T05:00:28;41.13;;;15.73;;
44588;SDS011;30298;52.562;13.414;2022-11-22T05:02:54;40.45;;;17.40;;
44588;SDS011;30298;52.562;13.414;2022-11-22T05:05:19;36.15;;;16.90;;
44588;SDS011;30298;52.562;13.414;2022-11-22T05:07:44;39.30;;;17.37;;
44588;SDS011;30298;52.562;13.414;2022-11-22T05:10:10;42.10;;;16.47;;
44588;SDS011;30298;52.562;13.414;2022-11-22T05:12:36;42.90;;;16.25;;
44588;SDS011;30298;52.562;13.414;2022-11-22T05:15:01;38.03;;;17.40;;
44588;SDS011;30298;52.562;13.414;2022-11-22T05:17:26;38.77;;;16.10;;
44588;SDS011;30298;52.562;13.414;2022-11-22T05:19:52;36.87;;;16.17;;
44588;SDS011;30298;52.562;13.414;2022-11-22T05:22:17;40.37;;;18.53;;
44588;SDS011;30298;52.562;13.414;2022-11-22T05:25:02;40.08;;;18.05;;
44588;SDS011;30298;52.562;13.414;2022-11-22T05:27:28;42.90;;;17.55;;
44588;SDS011;30298;52.562;13.414;2022-11-22T05:29:54;35.83;;;15.37;;
44588;SDS011;30298;52.562;13.414;2022-11-22T05:32:19;42.63;;;16.98;;
44588;SDS011;30298;52.562;13.414;2022-11-22T05:34:44;37.10;;;17.00;;
44588;SDS011;30298;52.562;13.414;2022-11-22T05:37:10;41.90;;;18.43;;
44588;SDS011;30298;52.562;13.414;2022-11-22T05:39:35;41.47;;;17.47;;
44588;SDS011;30298;52.562;13.414;2022-11-22T05:42:00;37.37;;;16.90;;
44588;SDS011;30298;52.562;13.414;2022-11-22T05:44:25;39.27;;;17.33;;
44588;SDS011;30298;52.562;13.414;2022-11-22T05:46:51;42.07;;;17.17;;
44588;SDS011;30298;52.562;13.414;2022-11-22T05:49:16;38.83;;;16.67;;
44588;SDS011;30298;52.562;13.414;2022-11-22T05:51:41;41.13;;;17.87;;
44588;SDS011;30298;52.562;13.414;2022-11-22T05:54:07;42.57;;;18.30;;
44588;SDS011;30298;52.562;13.414;2022-11-22T05:56:32;42.73;;;17.03;;
44588;SDS011;30298;52.562;13.414;2022-11-22T05:58:57;38.10;;;17.80;;
44588;SDS011;30298;52.562;13.414;2022-11-22T06:01:23;36.33;;;16.70;;
44588;SDS011;30298;52.562;13.414;2022-11-22T06:03:48;41.88;;;17.33;;
44588;SDS011;30298;52.562;13.414;2022-11-22T06:06:14;39.67;;;16.88;;
44588;SDS011;30298;52.562;13.414;2022-11-22T06:08:40;38.72;;;17.95;;
44588;SDS011;30298;52.562;13.414;2022-11-22T06:11:07;40.47;;;18.40;;
44588;SDS011;30298;52.562;13.414;2022-11-22T06:13:33;42.30;;;18.10;;
44588;SDS011;30298;52.562;13.414;2022-11-22T06:15:59;45.50;;;17.80;;
44588;SDS011;30298;52.562;13.414;2022-11-22T06:18:24;41.43;;;17.73;;
44588;SDS011;30298;52.562;13.414;2022-11-22T06:20:49;40.13;;;16.40;;
44588;SDS011;30298;52.562;13.414;2022-11-22T06:23:15;41.97;;;18.17;;
44588;SDS011;30298;52.562;13.414;2022-11-22T06:25:40;42.93;;;18.10;;
44588;SDS011;30298;52.562;13.414;2022-11-22T06:28:05;42.67;;;18.30;;
44588;SDS011;30298;52.562;13.414;2022-11-22T06:30:30;43.57;;;18.33;;
44588;SDS011;30298;52.562;13.414;2022-11-22T06:32:56;41.90;;;18.50;;
44588;SDS011;30298;52.562;13.414;2022-11-22T06:35:21;42.83;;;16.93;;
44588;SDS011;30298;52.562;13.414;2022-11-22T06:37:47;44.37;;;18.33;;
44588;SDS011;30298;52.562;13.414;2022-11-22T06:40:12;41.83;;;17.83;;
44588;SDS011;30298;52.562;13.414;2022-11-22T06:42:37;41.87;;;17.97;;
44588;SDS011;30298;52.562;13.414;2022-11-22T06:45:03;39.27;;;17.33;;
44588;SDS011;30298;52.562;13.414;2022-11-22T06:47:29;41.42;;;17.80;;
44588;SDS011;30298;52.562;13.414;2022-11-22T06:49:54;42.23;;;17.50;;
44588;SDS011;30298;52.562;13.414;2022-11-22T06:52:20;40.47;;;18.17;;
44588;SDS011;30298;52.562;13.414;2022-11-22T06:54:45;43.60;;;17.73;;
44588;SDS011;30298;52.562;13.414;2022-11-22T06:57:13;42.53;;;16.90;;
44588;SDS011;30298;52.562;13.414;2022-11-22T06:59:39;40.22;;;18.73;;
44588;SDS011;30298;52.562;13.414;2022-11-22T07:02:04;37.63;;;17.90;;
44588;SDS011;30298;52.562;13.414;2022-11-22T07:04:29;39.97;;;16.57;;
44588;SDS011;30298;52.562;13.414;2022-11-22T07:06:57;38.93;;;17.07;;
44588;SDS011;30298;52.562;13.414;2022-11-22T07:09:23;39.47;;;16.55;;
44588;SDS011;30298;52.562;13.414;2022-11-22T07:11:48;44.30;;;18.97;;
44588;SDS011;30298;52.562;13.414;2022-11-22T07:14:13;43.27;;;18.60;;
44588;SDS011;30298;52.562;13.414;2022-11-22T07:16:39;37.03;;;16.80;;
44588;SDS011;30298;52.562;13.414;2022-11-22T07:19:04;41.47;;;17.27;;
44588;SDS011;30298;52.562;13.414;2022-11-22T07:21:33;38.47;;;18.00;;
44588;SDS011;30298;52.562;13.414;2022-11-22T07:23:59;40.75;;;16.85;;
44588;SDS011;30298;52.562;13.414;2022-11-22T07:26:24;41.17;;;17.47;;
44588;SDS011;30298;52.562;13.414;2022-11-22T07:28:50;36.97;;;16.25;;
44588;SDS011;30298;52.562;13.414;2022-11-22T07:31:15;39.73;;;17.10;;
44588;SDS011;30298;52.562;13.414;2022-11-22T07:33:41;39.95;;;16.30;;
44588;SDS011;30298;52.562;13.414;2022-11-22T07:36:07;32.95;;;16.00;;
44588;SDS011;30298;52.562;13.414;2022-11-22T07:38:33;38.63;;;17.77;;
44588;SDS011;30298;52.562;13.414;2022-11-22T07:40:59;37.33;;;16.33;;
44588;SDS011;30298;52.562;13.414;2022-11-22T07:43:24;40.60;;;18.00;;
44588;SDS011;30298;52.562;13.414;2022-11-22T07:45:49;40.93;;;16.73;;
44588;SDS011;30298;52.562;13.414;2022-11-22T07:48:14;38.60;;;17.50;;
44588;SDS011;30298;52.562;13.414;2022-11-22T07:50:40;38.87;;;18.27;;
44588;SDS011;30298;52.562;13.414;2022-11-22T07:53:06;37.38;;;16.38;;
44588;SDS011;30298;52.562;13.414;2022-11-22T07:55:31;35.60;;;16.60;;
44588;SDS011;30298;52.562;13.414;2022-11-22T07:57:57;34.77;;;16.23;;
44588;SDS011;30298;52.562;13.414;2022-11-22T08:00:23;36.28;;;15.90;;
44588;SDS011;30298;52.562;13.414;2022-11-22T08:02:48;44.10;;;18.50;;
44588;SDS011;30298;52.562;13.414;2022-11-22T08:05:13;40.40;;;17.90;;
44588;SDS011;30298;52.562;13.414;2022-11-22T08:07:40;35.13;;;16.53;;
44588;SDS011;30298;52.562;13.414;2022-11-22T08:10:09;38.92;;;16.02;;
44588;SDS011;30298;52.562;13.414;2022-11-22T08:12:34;34.30;;;16.67;;
44588;SDS011;30298;52.562;13.414;2022-11-22T08:15:00;33.97;;;16.17;;
44588;SDS011;30298;52.562;13.414;2022-11-22T08:17:25;37.23;;;17.40;;
44588;SDS011;30298;52.562;13.414;2022-11-22T08:19:50;39.50;;;17.03;;
44588;SDS011;30298;52.562;13.414;2022-11-22T08:22:17;39.28;;;15.85;;
44588;SDS011;30298;52.562;13.414;2022-11-22T08:24:43;39.40;;;17.58;;
44588;SDS011;30298;52.562;13.414;2022-11-22T08:27:08;37.70;;;15.93;;
44588;SDS011;30298;52.562;13.414;2022-11-22T08:29:33;37.13;;;16.70;;
44588;SDS011;30298;52.562;13.414;2022-11-22T08:31:59;34.73;;;15.30;;
44588;SDS011;30298;52.562;13.414;2022-11-22T08:34:24;42.27;;;16.93;;
44588;SDS011;30298;52.562;13.414;2022-11-22T08:36:49;37.03;;;17.07;;
44588;SDS011;30298;52.562;13.414;2022-11-22T08:39:14;38.37;;;17.20;;
44588;SDS011;30298;52.562;13.414;2022-11-22T08:41:40;41.37;;;17.93;;
44588;SDS011;30298;52.562;13.414;2022-11-22T08:44:05;37.00;;;15.95;;
44588;SDS011;30298;52.562;13.414;2022-11-22T08:46:31;41.20;;;16.93;;
44588;SDS011;30298;52.562;13.414;2022-11-22T08:48:56;38.73;;;15.40;;
44588;SDS011;30298;52.562;13.414;2022-11-22T08:51:21;37.27;;;16.33;;
44588;SDS011;30298;52.562;13.414;2022-11-22T08:53:46;40.10;;;17.67;;
44588;SDS011;30298;52.562;13.414;2022-11-22T08:56:13;43.70;;;18.80;;
44588;SDS011;30298;52.562;13.414;2022-11-22T08:58:38;39.25;;;17.50;;
44588;SDS011;30298;52.562;13.414;2022-11-22T09:01:04;39.38;;;17.15;;
44588;SDS011;30298;52.562;13.414;2022-11-22T09:03:30;39.22;;;17.40;;
44588;SDS011;30298;52.562;13.414;2022-11-22T09:06:14;38.23;;;18.70;;
44588;SDS011;30298;52.562;13.414;2022-11-22T09:08:40;38.92;;;17.08;;
44588;SDS011;30298;52.562;13.414;2022-11-22T09:11:07;37.97;;;18.43;;
44588;SDS011;30298;52.562;13.414;2022-11-22T09:13:33;38.53;;;17.02;;
44588;SDS011;30298;52.562;13.414;2022-11-22T09:16:04;42.83;;;18.27;;
44588;SDS011;30298;52.562;13.414;2022-11-22T09:18:30;42.83;;;17.90;;
44588;SDS011;30298;52.562;13.414;2022-11-22T09:20:56;44.60;;;18.37;;
44588;SDS011;30298;52.562;13.414;2022-11-22T09:23:21;43.97;;;18.50;;
44588;SDS011;30298;52.562;13.414;2022-11-22T09:25:47;44.27;;;18.57;;
44588;SDS011;30298;52.562;13.414;2022-11-22T09:28:12;43.33;;;19.37;;
44588;SDS011;30298;52.562;13.414;2022-11-22T09:30:37;41.07;;;16.60;;
44588;SDS011;30298;52.562;13.414;2022-11-22T09:33:02;44.27;;;16.87;;
44588;SDS011;30298;52.562;13.414;2022-11-22T09:35:28;45.60;;;18.97;;
44588;SDS011;30298;52.562;13.414;2022-11-22T09:37:53;40.67;;;16.53;;
44588;SDS011;30298;52.562;13.414;2022-11-22T09:40:18;46.00;;;18.60;;
44588;SDS011;30298;52.562;13.414;2022-11-22T09:45:20;39.65;;;18.45;;
44588;SDS011;30298;52.562;13.414;2022-11-22T09:53:14;46.90;;;18.73;;
44588;SDS011;30298;52.562;13.414;2022-11-22T09:55:47;50.28;;;19.85;;
44588;SDS011;30298;52.562;13.414;2022-11-22T10:00:48;41.67;;;19.05;;
44588;SDS011;30298;52.562;13.414;2022-11-22T10:05:59;46.60;;;20.35;;
44588;SDS011;30298;52.562;13.414;2022-11-22T10:13:47;47.30;;;19.77;;
44588;SDS011;30298;52.562;13.414;2022-11-22T10:16:19;43.90;;;19.65;;
44588;SDS011;30298;52.562;13.414;2022-11-22T10:21:13;49.87;;;19.87;;
44588;SDS011;30298;52.562;13.414;2022-11-22T10:23:41;45.97;;;20.42;;
44588;SDS011;30298;52.562;13.414;2022-11-22T10:26:24;44.17;;;18.70;;
44588;SDS011;30298;52.562;13.414;2022-11-22T10:31:16;42.47;;;17.27;;
44588;SDS011;30298;52.562;13.414;2022-11-22T10:33:46;50.20;;;19.70;;
44588;SDS011;30298;52.562;13.414;2022-11-22T10:36:21;44.00;;;19.35;;
44588;SDS011;30298;52.562;13.414;2022-11-22T10:38:56;46.08;;;19.55;;
44588;SDS011;30298;52.562;13.414;2022-11-22T10:49:22;49.20;;;19.67;;
44588;SDS011;30298;52.562;13.414;2022-11-22T10:56:45;45.57;;;20.83;;
44588;SDS011;30298;52.562;13.414;2022-11-22T11:04:08;44.97;;;19.85;;
44588;SDS011;30298;52.562;13.414;2022-11-22T11:06:42;55.45;;;24.27;;
44588;SDS011;30298;52.562;13.414;2022-11-22T11:09:12;55.17;;;23.73;;
44588;SDS011;30298;52.562;13.414;2022-11-22T11:11:39;43.85;;;18.75;;
44588;SDS011;30298;52.562;13.414;2022-11-22T11:14:07;51.65;;;22.33;;
44588;SDS011;30298;52.562;13.414;2022-11-22T11:16:35;48.80;;;20.73;;
44588;SDS011;30298;52.562;13.414;2022-11-22T11:19:12;51.20;;;22.42;;
44588;SDS011;30298;52.562;13.414;2022-11-22T11:21:40;49.03;;;20.40;;
44588;SDS011;30298;52.562;13.414;2022-11-22T11:24:15;48.03;;;20.97;;
44588;SDS011;30298;52.562;13.414;2022-11-22T11:26:41;46.88;;;19.50;;
44588;SDS011;30298;52.562;13.414;2022-11-22T11:32:03;47.72;;;20.30;;
44588;SDS011;30298;52.562;13.414;2022-11-22T11:34:27;49.53;;;20.23;;
44588;SDS011;30298;52.562;13.414;2022-11-22T11:36:53;49.17;;;20.13;;
44588;SDS011;30298;52.562;13.414;2022-11-22T11:39:20;42.88;;;18.13;;
44588;SDS011;30298;52.562;13.414;2022-11-22T11:41:45;46.72;;;19.70;;
44588;SDS011;30298;52.562;13.414;2022-11-22T11:44:33;45.60;;;21.02;;
44588;SDS011;30298;52.562;13.414;2022-11-22T11:46:58;48.15;;;19.10;;
44588;SDS011;30298;52.562;13.414;2022-11-22T11:49:25;43.75;;;20.85;;
44588;SDS011;30298;52.562;13.414;2022-11-22T11:52:08;57.17;;;22.60;;
44588;SDS011;30298;52.562;13.414;2022-11-22T11:54:42;46.17;;;20.13;;
44588;SDS011;30298;52.562;13.414;2022-11-22T11:57:22;40.72;;;19.23;;
44588;SDS011;30298;52.562;13.414;2022-11-22T11:59:49;45.35;;;20.27;;
44588;SDS011;30298;52.562;13.414;2022-11-22T12:02:22;45.75;;;19.73;;
44588;SDS011;30298;52.562;13.414;2022-11-22T12:04:52;45.55;;;19.77;;
44588;SDS011;30298;52.562;13.414;2022-11-22T12:07:19;43.75;;;18.80;;
44588;SDS011;30298;52.562;13.414;2022-11-22T12:09:47;43.38;;;18.67;;
44588;SDS011;30298;52.562;13.414;2022-11-22T12:12:55;43.40;;;18.15;;
44588;SDS011;30298;52.562;13.414;2022-11-22T12:17:30;45.42;;;19.40;;
44588;SDS011;30298;52.562;13.414;2022-11-22T12:20:03;38.35;;;18.85;;
44588;SDS011;30298;52.562;13.414;2022-11-22T12:22:44;43.90;;;19.58;;
44588;SDS011;30298;52.562;13.414;2022-11-22T12:27:42;47.28;;;18.17;;
44588;SDS011;30298;52.562;13.414;2022-11-22T12:30:11;43.93;;;19.70;;
44588;SDS011;30298;52.562;13.414;2022-11-22T12:32:39;43.15;;;19.38;;
44588;SDS011;30298;52.562;13.414;2022-11-22T12:37:38;45.58;;;19.48;;
44588;SDS011;30298;52.562;13.414;2022-11-22T12:40:27;45.03;;;18.88;;
44588;SDS011;30298;52.562;13.414;2022-11-22T12:42:54;45.58;;;19.33;;
44588;SDS011;30298;52.562;13.414;2022-11-22T12:45:26;47.60;;;21.35;;
44588;SDS011;30298;52.562;13.414;2022-11-22T12:47:52;75.88;;;36.88;;
44588;SDS011;30298;52.562;13.414;2022-11-22T12:53:09;47.50;;;18.52;;
44588;SDS011;30298;52.562;13.414;2022-11-22T12:56:23;42.17;;;18.33;;
44588;SDS011;30298;52.562;13.414;2022-11-22T13:06:13;45.05;;;20.45;;
44588;SDS011;30298;52.562;13.414;2022-11-22T13:08:50;43.10;;;19.67;;
44588;SDS011;30298;52.562;13.414;2022-11-22T13:14:32;44.67;;;20.17;;
44588;SDS011;30298;52.562;13.414;2022-11-22T13:16:57;42.70;;;19.00;;
44588;SDS011;30298;52.562;13.414;2022-11-22T13:19:23;46.17;;;19.67;;
44588;SDS011;30298;52.562;13.414;2022-11-22T13:29:27;43.10;;;19.50;;
44588;SDS011;30298;52.562;13.414;2022-11-22T13:32:26;41.15;;;18.75;;
44588;SDS011;30298;52.562;13.414;2022-11-22T13:35:01;49.03;;;20.02;;
44588;SDS011;30298;52.562;13.414;2022-11-22T13:37:27;44.08;;;19.25;;
44588;SDS011;30298;52.562;13.414;2022-11-22T13:39:53;47.13;;;18.45;;
44588;SDS011;30298;52.562;13.414;2022-11-22T13:42:28;44.80;;;19.17;;
44588;SDS011;30298;52.562;13.414;2022-11-22T13:49:46;49.35;;;20.42;;
44588;SDS011;30298;52.562;13.414;2022-11-22T13:54:39;45.40;;;19.73;;
44588;SDS011;30298;52.562;13.414;2022-11-22T14:02:32;41.63;;;17.50;;
44588;SDS011;30298;52.562;13.414;2022-11-22T14:04:57;41.30;;;17.20;;
44588;SDS011;30298;52.562;13.414;2022-11-22T14:07:29;42.00;;;18.87;;
44588;SDS011;30298;52.562;13.414;2022-11-22T14:09:56;42.33;;;19.48;;
44588;SDS011;30298;52.562;13.414;2022-11-22T14:23:04;51.97;;;18.95;;
44588;SDS011;30298;52.562;13.414;2022-11-22T14:30:54;48.53;;;21.00;;
44588;SDS011;30298;52.562;13.414;2022-11-22T14:33:21;48.88;;;19.35;;
44588;SDS011;30298;52.562;13.414;2022-11-22T14:38:31;46.35;;;19.02;;
44588;SDS011;30298;52.562;13.414;2022-11-22T14:41:42;42.38;;;19.50;;
44588;SDS011;30298;52.562;13.414;2022-11-22T14:43:42;44.13;;;19.10;;
44588;SDS011;30298;52.562;13.414;2022-11-22T14:46:12;42.80;;;18.63;;
44588;SDS011;30298;52.562;13.414;2022-11-22T14:48:45;49.38;;;20.52;;
44588;SDS011;30298;52.562;13.414;2022-11-22T14:51:27;45.75;;;19.40;;
44588;SDS011;30298;52.562;13.414;2022-11-22T14:54:00;43.78;;;18.95;;
44588;SDS011;30298;52.562;13.414;2022-11-22T15:01:39;44.75;;;18.75;;
44588;SDS011;30298;52.562;13.414;2022-11-22T15:06:43;49.38;;;19.38;;
44588;SDS011;30298;52.562;13.414;2022-11-22T15:12:03;52.33;;;18.83;;
44588;SDS011;30298;52.562;13.414;2022-11-22T15:17:17;49.97;;;20.60;;
44588;SDS011;30298;52.562;13.414;2022-11-22T15:19:43;53.03;;;20.98;;
44588;SDS011;30298;52.562;13.414;2022-11-22T15:22:12;50.17;;;21.30;;
44588;SDS011;30298;52.562;13.414;2022-11-22T15:24:46;41.60;;;19.27;;
44588;SDS011;30298;52.562;13.414;2022-11-22T15:32:34;43.50;;;20.60;;
44588;SDS011;30298;52.562;13.414;2022-11-22T15:35:00;51.45;;;19.25;;
44588;SDS011;30298;52.562;13.414;2022-11-22T15:38:08;44.10;;;19.33;;
44588;SDS011;30298;52.562;13.414;2022-11-22T15:40:14;52.72;;;21.45;;
44588;SDS011;30298;52.562;13.414;2022-11-22T15:42:56;44.65;;;19.90;;
44588;SDS011;30298;52.562;13.414;2022-11-22T15:45:22;49.88;;;20.25;;
44588;SDS011;30298;52.562;13.414;2022-11-22T15:50:32;57.78;;;21.42;;
44588;SDS011;30298;52.562;13.414;2022-11-22T15:53:16;45.23;;;19.70;;
44588;SDS011;30298;52.562;13.414;2022-11-22T15:55:51;50.42;;;20.02;;
44588;SDS011;30298;52.562;13.414;2022-11-22T15:58:17;50.17;;;20.73;;
44588;SDS011;30298;52.562;13.414;2022-11-22T16:00:42;52.57;;;21.50;;
44588;SDS011;30298;52.562;13.414;2022-11-22T16:03:13;50.33;;;20.40;;
44588;SDS011;30298;52.562;13.414;2022-11-22T16:05:43;47.65;;;18.90;;
44588;SDS011;30298;52.562;13.414;2022-11-22T16:08:09;49.67;;;21.42;;
44588;SDS011;30298;52.562;13.414;2022-11-22T16:10:40;44.45;;;19.40;;
44588;SDS011;30298;52.562;13.414;2022-11-22T16:13:10;50.25;;;19.90;;
44588;SDS011;30298;52.562;13.414;2022-11-22T16:15:36;47.03;;;19.02;;
44588;SDS011;30298;52.562;13.414;2022-11-22T16:21:05;52.13;;;21.50;;
44588;SDS011;30298;52.562;13.414;2022-11-22T16:23:31;50.42;;;22.13;;
44588;SDS011;30298;52.562;13.414;2022-11-22T16:25:59;52.40;;;20.85;;
44588;SDS011;30298;52.562;13.414;2022-11-22T16:28:35;50.65;;;19.23;;